createdAt,value
2022-10-03T00:00:10.443Z,44.54
2022-10-03T00:03:17.618Z,44.96
2022-10-03T00:06:11.228Z,44.50
2022-10-03T00:09:13.327Z,44.90
2022-10-03T00:12:14.421Z,44.94
2022-10-03T00:15:14.203Z,45.12
2022-10-03T00:18:24.341Z,45.35
2022-10-03T00:21:25.375Z,44.71
2022-10-03T00:24:21.343Z,44.98
2022-10-03T00:27:26.282Z,45.01
2022-10-03T00:30:13.727Z,45.04
2022-10-03T00:33:23.167Z,45.46
2022-10-03T00:36:19.744Z,45.18
2022-10-03T00:39:29.838Z,45.67
2022-10-03T00:42:40.539Z,45.27
2022-10-03T00:45:56.833Z,45.58
2022-10-03T00:49:07.340Z,45.46
2022-10-03T00:52:11.861Z,45.49
2022-10-03T00:55:16.385Z,45.62
2022-10-03T00:58:49.986Z,45.90
2022-10-03T01:01:48.342Z,45.49
2022-10-03T01:04:50.114Z,45.41
2022-10-03T01:08:04.413Z,45.50
2022-10-03T01:10:53.276Z,45.40
2022-10-03T01:14:21.060Z,45.85
2022-10-03T01:17:25.940Z,45.83
2022-10-03T01:20:24.296Z,45.70
2022-10-03T01:23:52.039Z,46.01
2022-10-03T01:26:49.581Z,45.54
2022-10-03T01:30:06.364Z,45.71
2022-10-03T01:33:10.746Z,45.70
2022-10-03T01:36:17.843Z,45.78
2022-10-03T01:39:13.655Z,45.71
2022-10-03T01:42:14.727Z,45.96
2022-10-03T01:45:23.676Z,46.02
2022-10-03T01:48:30.793Z,46.06
2022-10-03T01:51:28.994Z,45.76
2022-10-03T01:54:21.406Z,45.79
2022-10-03T01:57:29.903Z,46.28
2022-10-03T02:00:17.778Z,45.81
2022-10-03T02:03:27.898Z,45.83
2022-10-03T02:06:20.236Z,45.77
2022-10-03T02:09:27.395Z,46.18
2022-10-03T02:12:35.746Z,46.57
2022-10-03T02:15:29.081Z,45.93
2022-10-03T02:18:29.624Z,46.04
2022-10-03T02:21:22.321Z,46.24
2022-10-03T02:24:20.233Z,46.08
2022-10-03T02:27:35.163Z,46.54
2022-10-03T02:31:10.708Z,46.94
2022-10-03T02:34:22.137Z,46.30
2022-10-03T02:37:42.265Z,46.70
2022-10-03T02:40:47.582Z,46.72
2022-10-03T02:43:57.866Z,46.47
2022-10-03T02:47:15.882Z,46.79
2022-10-03T02:50:39.075Z,46.87
2022-10-03T02:53:27.973Z,46.58
2022-10-03T02:56:25.420Z,46.45
2022-10-03T02:59:32.313Z,46.64
2022-10-03T03:02:34.138Z,46.72
2022-10-03T03:05:39.434Z,46.98
2022-10-03T03:08:44.695Z,46.76
2022-10-03T03:11:56.429Z,47.03
2022-10-03T03:15:18.778Z,46.98
2022-10-03T03:18:35.111Z,47.23
2022-10-03T03:21:53.740Z,47.03
2022-10-03T03:25:35.646Z,47.37
2022-10-03T03:28:47.027Z,46.88
2022-10-03T03:31:48.507Z,47.10
2022-10-03T03:34:38.731Z,46.87
2022-10-03T03:37:39.160Z,47.13
2022-10-03T03:40:40.547Z,47.16
2022-10-03T03:43:34.516Z,46.94
2022-10-03T03:46:41.142Z,48.25
2022-10-03T03:49:30.081Z,46.98
2022-10-03T03:52:59.099Z,47.56
2022-10-03T03:56:23.450Z,47.37
2022-10-03T03:59:37.288Z,47.58
2022-10-03T04:02:30.821Z,47.14
2022-10-03T04:05:54.650Z,47.84
2022-10-03T04:08:46.953Z,47.21
2022-10-03T04:11:42.659Z,48.52
2022-10-03T04:14:31.553Z,47.04
2022-10-03T04:17:45.340Z,47.20
2022-10-03T04:21:02.272Z,47.59
2022-10-03T04:24:03.392Z,47.57
2022-10-03T04:27:07.890Z,47.33
2022-10-03T04:30:10.321Z,47.58
2022-10-03T04:33:15.239Z,47.86
2022-10-03T04:36:26.180Z,47.46
2022-10-03T04:39:38.170Z,47.86
2022-10-03T04:42:39.604Z,47.65
2022-10-03T04:45:44.614Z,47.86
2022-10-03T04:48:42.916Z,47.74
2022-10-03T04:51:54.700Z,47.79
2022-10-03T04:54:56.689Z,47.83
2022-10-03T04:58:07.959Z,48.00
2022-10-03T05:01:08.299Z,47.75
2022-10-03T05:04:06.490Z,47.62
2022-10-03T05:07:25.346Z,47.98
2022-10-03T05:10:23.572Z,48.09
2022-10-03T05:13:30.244Z,47.83
2022-10-03T05:16:37.203Z,48.30
2022-10-03T05:19:41.983Z,47.87
2022-10-03T05:22:31.330Z,47.97
2022-10-03T05:25:20.696Z,48.22
2022-10-03T05:28:36.937Z,48.27
2022-10-03T05:31:34.078Z,48.31
2022-10-03T05:34:52.643Z,48.57
2022-10-03T05:38:15.940Z,48.29
2022-10-03T05:41:26.375Z,48.42
2022-10-03T05:44:20.421Z,48.29
2022-10-03T05:47:34.978Z,49.30
2022-10-03T05:50:20.528Z,47.86
2022-10-03T05:53:34.050Z,48.54
2022-10-03T05:56:47.536Z,48.14
2022-10-03T06:00:10.329Z,48.21
2022-10-03T06:03:27.341Z,48.24
2022-10-03T06:06:34.208Z,49.24
2022-10-03T06:09:52.798Z,48.08
2022-10-03T06:13:01.582Z,48.03
2022-10-03T06:16:04.545Z,48.09
2022-10-03T06:18:50.671Z,47.80
2022-10-03T06:22:17.733Z,48.48
2022-10-03T06:25:15.807Z,47.99
2022-10-03T06:28:20.283Z,48.66
2022-10-03T06:31:39.932Z,48.27
2022-10-03T06:34:48.794Z,48.37
2022-10-03T06:38:25.371Z,48.71
2022-10-03T06:41:29.420Z,48.49
2022-10-03T06:44:15.031Z,49.36
2022-10-03T06:47:31.527Z,48.88
2022-10-03T06:50:29.621Z,48.54
2022-10-03T06:53:34.398Z,48.61
2022-10-03T06:56:44.203Z,48.72
2022-10-03T06:59:54.254Z,48.63
2022-10-03T07:03:04.569Z,48.52
2022-10-03T07:06:13.899Z,48.52
2022-10-03T07:09:09.111Z,48.59
2022-10-03T07:12:26.697Z,48.44
2022-10-03T07:15:50.149Z,48.62
2022-10-03T07:19:14.039Z,48.75
2022-10-03T07:22:20.938Z,48.85
2022-10-03T07:25:53.602Z,48.65
2022-10-03T07:29:07.384Z,48.90
2022-10-03T07:31:53.154Z,48.59
2022-10-03T07:35:11.515Z,48.69
2022-10-03T07:38:37.035Z,48.64
2022-10-03T07:41:53.181Z,48.76
2022-10-03T07:44:58.877Z,48.73
2022-10-03T07:48:49.458Z,48.52
2022-10-03T07:52:24.553Z,48.83
2022-10-03T07:55:19.787Z,48.37
2022-10-03T07:58:20.609Z,48.56
2022-10-03T08:01:17.607Z,48.67
2022-10-03T08:04:28.269Z,48.78
2022-10-03T08:07:51.316Z,48.48
2022-10-03T08:15:07.537Z,48.30
2022-10-03T08:18:26.702Z,48.27
2022-10-03T08:21:49.030Z,48.13
2022-10-03T08:25:03.472Z,47.98
2022-10-03T08:28:26.585Z,47.92
2022-10-03T08:31:25.530Z,47.59
2022-10-03T08:34:43.940Z,47.66
2022-10-03T08:38:00.155Z,47.57
2022-10-03T08:41:28.255Z,47.86
2022-10-03T08:44:31.942Z,47.81
2022-10-03T08:47:39.478Z,47.65
2022-10-03T08:50:56.763Z,47.57
2022-10-03T08:54:06.627Z,47.62
2022-10-03T08:57:10.701Z,47.50
2022-10-03T09:00:16.988Z,47.34
2022-10-03T09:03:33.607Z,47.49
2022-10-03T09:07:12.613Z,47.18
2022-10-03T09:10:02.156Z,47.20
2022-10-03T09:13:18.558Z,47.30
2022-10-03T09:16:22.908Z,47.21
2022-10-03T09:19:49.668Z,47.12
2022-10-03T09:23:01.830Z,47.10
2022-10-03T09:25:50.840Z,47.06
2022-10-03T09:28:48.688Z,47.11
2022-10-03T09:32:02.451Z,47.20
2022-10-03T09:35:08.030Z,47.13
2022-10-03T09:37:59.713Z,47.24
2022-10-03T09:41:19.434Z,47.26
2022-10-03T09:44:23.746Z,47.26
2022-10-03T09:47:28.310Z,47.37
2022-10-03T09:50:57.710Z,47.17
2022-10-03T09:54:04.442Z,46.95
2022-10-03T09:57:39.085Z,46.76
2022-10-03T10:01:03.979Z,46.68
2022-10-03T10:04:02.359Z,46.90
2022-10-03T10:07:20.619Z,46.98
2022-10-03T10:10:29.479Z,46.87
2022-10-03T10:14:06.851Z,46.75
2022-10-03T10:17:28.801Z,46.92
2022-10-03T10:20:47.145Z,46.84
2022-10-03T10:23:38.195Z,46.74
2022-10-03T10:26:33.341Z,46.68
2022-10-03T10:29:34.321Z,46.67
2022-10-03T10:32:48.031Z,46.51
2022-10-03T10:35:52.277Z,46.65
2022-10-03T10:38:59.233Z,46.46
2022-10-03T10:42:03.616Z,46.22
2022-10-03T10:45:31.539Z,46.17
2022-10-03T10:49:05.897Z,45.97
2022-10-03T10:52:29.089Z,45.99
2022-10-03T10:55:36.208Z,45.62
2022-10-03T10:59:13.515Z,45.58
2022-10-03T11:02:17.289Z,45.36
2022-10-03T11:05:32.329Z,45.53
2022-10-03T11:09:00.013Z,45.65
2022-10-03T11:11:54.946Z,45.01
2022-10-03T11:15:03.646Z,44.34
2022-10-03T11:18:37.749Z,44.32
2022-10-03T11:21:33.306Z,43.89
2022-10-03T11:24:37.276Z,43.10
2022-10-03T11:28:04.441Z,42.06
2022-10-03T11:31:12.017Z,40.94
2022-10-03T11:34:37.155Z,39.68
2022-10-03T11:38:03.347Z,38.73
2022-10-03T11:41:05.089Z,37.09
2022-10-03T11:44:12.339Z,34.76
2022-10-03T11:47:00.742Z,34.58
2022-10-03T11:49:56.024Z,34.42
2022-10-03T11:53:09.716Z,34.38
2022-10-03T11:55:55.678Z,34.46
2022-10-03T11:59:07.387Z,35.60
2022-10-03T12:02:22.839Z,35.41
2022-10-03T12:05:18.048Z,34.87
2022-10-03T12:08:41.590Z,33.63
2022-10-03T12:11:36.179Z,33.16
2022-10-03T12:14:30.398Z,31.98
2022-10-03T12:17:27.056Z,31.18
2022-10-03T12:20:17.752Z,30.38
2022-10-03T12:23:18.621Z,30.00
2022-10-03T12:26:05.159Z,30.73
2022-10-03T12:28:53.144Z,30.54
2022-10-03T12:31:59.070Z,30.38
2022-10-03T12:35:07.999Z,30.93
2022-10-03T12:38:22.175Z,31.39
2022-10-03T12:41:19.097Z,32.28
2022-10-03T12:44:20.054Z,32.36
2022-10-03T12:47:11.929Z,32.39
2022-10-03T12:50:16.128Z,31.08
2022-10-03T12:53:15.230Z,31.15
2022-10-03T12:56:14.220Z,30.86
2022-10-03T12:59:25.358Z,30.07
2022-10-03T13:02:29.971Z,30.64
2022-10-03T13:05:25.588Z,31.13
2022-10-03T13:08:36.141Z,31.10
2022-10-03T13:11:36.347Z,31.75
2022-10-03T13:15:03.352Z,31.62
2022-10-03T13:18:13.367Z,31.53
2022-10-03T13:21:33.314Z,31.19
2022-10-03T13:24:42.089Z,30.60
2022-10-03T13:27:32.383Z,29.81
2022-10-03T13:30:22.281Z,29.50
2022-10-03T13:33:37.185Z,28.75
2022-10-03T13:36:37.560Z,28.15
2022-10-03T13:39:51.976Z,27.26
2022-10-03T13:42:37.303Z,26.43
2022-10-03T13:45:25.564Z,27.95
2022-10-03T13:48:15.219Z,27.60
2022-10-03T13:51:16.254Z,27.86
2022-10-03T13:54:10.239Z,28.12
2022-10-03T13:56:58.020Z,27.20
2022-10-03T14:00:04.817Z,28.67
2022-10-03T14:03:31.173Z,28.96
2022-10-03T14:06:41.894Z,30.19
2022-10-03T14:09:36.970Z,30.39
2022-10-03T14:12:54.394Z,30.54
2022-10-03T14:15:47.330Z,31.09
2022-10-03T14:18:54.824Z,31.38
2022-10-03T14:22:01.916Z,31.27
2022-10-03T14:25:20.181Z,31.68
2022-10-03T14:28:36.885Z,31.88
2022-10-03T14:31:54.815Z,32.20
2022-10-03T14:35:16.822Z,32.31
2022-10-03T14:38:21.569Z,32.33
2022-10-03T14:41:15.047Z,32.50
2022-10-03T14:44:24.300Z,32.60
2022-10-03T14:47:13.341Z,32.66
2022-10-03T14:50:00.223Z,32.75
2022-10-03T14:52:52.815Z,32.75
2022-10-03T14:55:45.717Z,33.04
2022-10-03T14:58:37.768Z,33.09
2022-10-03T15:01:29.583Z,32.91
2022-10-03T15:04:33.046Z,33.17
2022-10-03T15:07:36.371Z,33.28
2022-10-03T15:10:26.024Z,33.54
2022-10-03T15:13:12.813Z,33.63
2022-10-03T15:16:01.264Z,33.76
2022-10-03T15:18:56.568Z,33.87
2022-10-03T15:21:45.979Z,34.10
2022-10-03T15:24:35.316Z,34.26
2022-10-03T15:27:22.520Z,34.40
2022-10-03T15:30:22.332Z,34.38
2022-10-03T15:33:34.034Z,34.52
2022-10-03T15:36:26.549Z,34.71
2022-10-03T15:39:28.761Z,34.82
2022-10-03T15:42:23.521Z,34.85
2022-10-03T15:45:22.137Z,35.17
2022-10-03T15:48:13.256Z,35.09
2022-10-03T15:50:59.648Z,35.09
2022-10-03T15:53:48.550Z,35.39
2022-10-03T15:56:42.828Z,35.38
2022-10-03T15:59:33.649Z,35.43
2022-10-03T16:02:23.859Z,35.46
2022-10-03T16:05:19.671Z,35.92
2022-10-03T16:08:21.134Z,36.12
2022-10-03T16:11:16.090Z,36.02
2022-10-03T16:14:18.515Z,36.32
2022-10-03T16:17:21.107Z,36.49
2022-10-03T16:20:22.611Z,36.50
2022-10-03T16:23:26.689Z,36.51
2022-10-03T16:26:24.800Z,36.54
2022-10-03T16:29:17.993Z,36.49
2022-10-03T16:32:07.782Z,36.63
2022-10-03T16:34:59.583Z,36.56
2022-10-03T16:37:48.168Z,36.48
2022-10-03T16:40:34.588Z,36.77
2022-10-03T16:43:21.139Z,36.60
2022-10-03T16:46:19.000Z,36.98
2022-10-03T16:49:30.868Z,36.96
2022-10-03T16:52:24.025Z,36.84
2022-10-03T16:55:16.413Z,37.19
2022-10-03T16:58:08.362Z,37.23
2022-10-03T17:01:25.235Z,37.43
2022-10-03T17:04:29.262Z,37.62
2022-10-03T17:07:25.258Z,37.52
2022-10-03T17:10:38.146Z,37.75
2022-10-03T17:13:38.242Z,37.52
2022-10-03T17:16:47.918Z,37.89
2022-10-03T17:19:41.494Z,37.80
2022-10-03T17:23:04.150Z,38.25
2022-10-03T17:26:20.700Z,38.03
2022-10-03T17:29:31.221Z,38.01
2022-10-03T17:32:33.461Z,37.98
2022-10-03T17:35:28.350Z,38.05
2022-10-03T17:38:49.549Z,38.28
2022-10-03T17:41:40.732Z,37.99
2022-10-03T17:44:26.709Z,38.24
2022-10-03T17:47:15.625Z,38.29
2022-10-03T17:50:11.499Z,38.24
2022-10-03T17:52:58.110Z,38.16
2022-10-03T17:55:44.965Z,38.27
2022-10-03T17:58:32.102Z,38.44
2022-10-03T18:01:21.343Z,38.46
2022-10-03T18:04:18.840Z,38.39
2022-10-03T18:07:18.593Z,38.33
2022-10-03T18:10:06.401Z,38.51
2022-10-03T18:12:55.793Z,38.50
2022-10-03T18:16:07.648Z,38.70
2022-10-03T18:18:56.692Z,38.64
2022-10-03T18:21:54.526Z,38.66
2022-10-03T18:24:41.299Z,38.58
2022-10-03T18:27:51.524Z,39.04
2022-10-03T18:30:46.181Z,38.69
2022-10-03T18:33:42.641Z,39.02
2022-10-03T18:36:36.758Z,38.88
2022-10-03T18:39:28.393Z,38.83
2022-10-03T18:42:26.712Z,38.96
2022-10-03T18:45:31.366Z,39.44
2022-10-03T18:48:29.849Z,38.98
2022-10-03T18:51:35.604Z,39.43
2022-10-03T18:54:49.595Z,39.27
2022-10-03T18:57:38.926Z,39.10
2022-10-03T19:00:30.180Z,39.46
2022-10-03T19:03:19.143Z,39.37
2022-10-03T19:06:19.584Z,39.28
2022-10-03T19:09:25.043Z,39.55
2022-10-03T19:12:21.510Z,39.66
2022-10-03T19:15:46.389Z,39.81
2022-10-03T19:18:51.775Z,40.08
2022-10-03T19:21:40.566Z,39.42
2022-10-03T19:24:56.738Z,39.44
2022-10-03T19:27:52.303Z,39.97
2022-10-03T19:30:40.427Z,39.71
2022-10-03T19:33:27.088Z,39.84
2022-10-03T19:36:26.249Z,39.78
2022-10-03T19:39:14.777Z,39.88
2022-10-03T19:42:18.652Z,40.30
2022-10-03T19:45:05.058Z,39.68
2022-10-03T19:47:51.276Z,40.13
2022-10-03T19:50:38.234Z,40.08
2022-10-03T19:53:26.287Z,39.98
2022-10-03T19:56:15.400Z,39.85
2022-10-03T19:59:36.180Z,40.63
2022-10-03T20:02:24.592Z,40.04
2022-10-03T20:05:22.983Z,40.63
2022-10-03T20:08:09.081Z,40.41
2022-10-03T20:11:05.406Z,40.05
2022-10-03T20:13:51.501Z,40.37
2022-10-03T20:16:43.033Z,40.26
2022-10-03T20:19:35.939Z,40.16
2022-10-03T20:22:28.163Z,40.25
2022-10-03T20:25:41.895Z,40.96
2022-10-03T20:28:33.815Z,40.50
2022-10-03T20:31:22.874Z,40.43
2022-10-03T20:34:15.338Z,40.68
2022-10-03T20:37:22.912Z,41.19
2022-10-03T20:40:16.285Z,40.99
2022-10-03T20:43:41.827Z,41.34
2022-10-03T20:46:35.800Z,40.96
2022-10-03T20:49:29.958Z,40.92
2022-10-03T20:52:17.187Z,41.91
2022-10-03T20:55:06.364Z,41.00
2022-10-03T20:58:13.469Z,41.54
2022-10-03T21:01:03.651Z,41.23
2022-10-03T21:04:06.170Z,41.40
2022-10-03T21:07:21.332Z,41.53
2022-10-03T21:10:28.279Z,42.09
2022-10-03T21:13:20.053Z,41.64
2022-10-03T21:16:22.097Z,41.92
2022-10-03T21:19:22.201Z,41.89
2022-10-03T21:22:11.432Z,41.78
2022-10-03T21:25:03.862Z,41.64
2022-10-03T21:27:54.142Z,41.81
2022-10-03T21:31:04.305Z,42.25
2022-10-03T21:34:00.361Z,42.18
2022-10-03T21:37:01.829Z,41.89
2022-10-03T21:40:06.449Z,42.58
2022-10-03T21:42:55.214Z,42.22
2022-10-03T21:46:04.783Z,42.42
2022-10-03T21:49:48.269Z,42.73
2022-10-03T21:52:37.051Z,42.36
2022-10-03T21:55:54.081Z,42.71
2022-10-03T21:58:49.943Z,42.46
2022-10-03T22:01:52.251Z,42.54
2022-10-03T22:04:53.337Z,42.78
2022-10-03T22:07:41.717Z,42.68
2022-10-03T22:10:29.988Z,42.61
2022-10-03T22:13:19.234Z,42.59
2022-10-03T22:16:11.332Z,42.76
2022-10-03T22:19:05.181Z,42.88
2022-10-03T22:22:13.284Z,42.78
2022-10-03T22:25:01.868Z,42.84
2022-10-03T22:28:12.495Z,43.08
2022-10-03T22:31:26.887Z,43.50
2022-10-03T22:34:25.591Z,43.08
2022-10-03T22:37:13.474Z,43.11
2022-10-03T22:40:00.346Z,43.12
2022-10-03T22:42:49.600Z,43.15
2022-10-03T22:45:39.663Z,43.04
2022-10-03T22:48:47.161Z,43.68
2022-10-03T22:51:33.326Z,43.25
2022-10-03T22:54:19.199Z,43.52
2022-10-03T22:57:10.752Z,43.39
2022-10-03T23:00:25.303Z,43.71
2022-10-03T23:03:10.803Z,44.73
2022-10-03T23:06:09.012Z,43.76
2022-10-03T23:09:20.551Z,43.82
2022-10-03T23:12:11.727Z,43.43
2022-10-03T23:15:00.650Z,43.54
2022-10-03T23:17:55.763Z,43.62
2022-10-03T23:21:09.174Z,44.06
2022-10-03T23:24:03.451Z,43.57
2022-10-03T23:27:11.381Z,44.25
2022-10-03T23:30:12.464Z,44.15
2022-10-03T23:33:00.927Z,43.90
2022-10-03T23:35:48.295Z,43.85
2022-10-03T23:38:34.230Z,43.79
2022-10-03T23:41:44.091Z,44.17
2022-10-03T23:44:35.857Z,43.98
2022-10-03T23:47:35.252Z,44.22
2022-10-03T23:50:38.141Z,44.29
2022-10-03T23:53:28.124Z,43.96
2022-10-03T23:56:23.392Z,44.31
2022-10-03T23:59:15.600Z,44.29
